createdAt,value
2022-08-03T00:02:31.263Z,3.00
2022-08-03T00:12:32.783Z,2.67
2022-08-03T00:22:37.432Z,2.60
2022-08-03T00:32:42.864Z,3.05
2022-08-03T00:42:59.460Z,2.40
2022-08-03T00:53:02.621Z,1.93
2022-08-03T01:03:04.971Z,2.27
2022-08-03T01:14:03.766Z,2.20
2022-08-03T01:24:06.829Z,2.30
2022-08-03T01:34:14.605Z,2.23
2022-08-03T01:44:29.760Z,2.03
2022-08-03T01:54:41.861Z,1.97
2022-08-03T02:04:45.560Z,1.87
2022-08-03T02:14:49.995Z,2.38
2022-08-03T02:24:51.696Z,2.20
2022-08-03T02:34:56.330Z,4.23
2022-08-03T02:45:01.778Z,4.20
2022-08-03T02:55:05.356Z,5.00
2022-08-03T03:05:55.754Z,6.18
2022-08-03T03:15:31.328Z,6.07
2022-08-03T03:25:33.756Z,5.40
2022-08-03T03:35:38.846Z,6.43
2022-08-03T03:45:41.902Z,7.83
2022-08-03T03:56:01.993Z,7.32
2022-08-03T04:06:04.330Z,7.27
2022-08-03T04:16:09.165Z,7.67
2022-08-03T04:26:13.447Z,6.83
2022-08-03T04:36:22.105Z,5.80
2022-08-03T04:46:27.307Z,3.20
2022-08-03T04:56:28.829Z,4.37
2022-08-03T05:06:30.362Z,5.47
2022-08-03T05:16:31.925Z,4.27
2022-08-03T05:26:33.452Z,4.30
2022-08-03T05:36:34.993Z,3.97
2022-08-03T05:46:36.536Z,3.63
2022-08-03T05:56:38.248Z,3.70
2022-08-03T06:06:40.452Z,3.27
2022-08-03T06:16:42.008Z,3.13
2022-08-03T06:26:43.593Z,4.03
2022-08-03T06:36:45.128Z,4.77
2022-08-03T06:46:46.691Z,4.03
2022-08-03T06:56:48.496Z,4.07
2022-08-03T07:06:50.117Z,4.23
2022-08-03T07:16:51.644Z,3.85
2022-08-03T07:26:53.211Z,3.83
2022-08-03T07:36:54.765Z,3.80
2022-08-03T07:46:56.692Z,4.80
2022-08-03T07:56:58.314Z,3.33
2022-08-03T08:07:00.005Z,3.20
2022-08-03T08:17:05.636Z,4.07
2022-08-03T08:27:08.931Z,3.23
2022-08-03T08:37:10.440Z,4.57
2022-08-03T08:47:12.763Z,4.10
2022-08-03T08:57:33.572Z,4.85
2022-08-03T09:07:37.961Z,4.70
2022-08-03T09:17:40.863Z,3.87
2022-08-03T09:27:46.423Z,5.47
2022-08-03T09:38:14.187Z,2.73
2022-08-03T09:48:26.155Z,2.80
2022-08-03T09:58:31.576Z,2.33
2022-08-03T10:08:33.160Z,2.80
2022-08-03T10:18:34.682Z,3.90
2022-08-03T10:29:01.649Z,4.10
2022-08-03T10:39:03.455Z,3.95
2022-08-03T10:49:33.867Z,3.37
2022-08-03T10:59:45.682Z,4.23
2022-08-03T11:09:56.344Z,4.63
2022-08-03T11:19:58.656Z,3.90
2022-08-03T11:30:32.718Z,2.65
2022-08-03T11:40:54.181Z,2.67
2022-08-03T11:50:56.864Z,2.93
2022-08-03T12:01:07.500Z,3.10
2022-08-03T12:11:11.200Z,3.10
2022-08-03T12:21:12.854Z,2.90
2022-08-03T12:31:14.430Z,2.40
2022-08-03T12:41:15.931Z,2.33
2022-08-03T12:51:17.434Z,2.90
2022-08-03T13:01:20.017Z,2.63
2022-08-03T13:11:53.450Z,8.52
2022-08-03T13:21:53.362Z,3.03
2022-08-03T13:32:06.142Z,2.77
2022-08-03T13:42:08.088Z,2.43
2022-08-03T13:52:09.642Z,3.03
2022-08-03T14:02:11.229Z,2.35
2022-08-03T14:22:35.273Z,2.40
2022-08-03T14:32:36.793Z,2.33
2022-08-03T14:42:38.343Z,2.77
2022-08-03T14:52:39.926Z,2.50
2022-08-03T15:02:41.606Z,2.53
2022-08-03T15:12:43.166Z,2.53
2022-08-03T15:22:44.671Z,1.90
2022-08-03T15:32:46.184Z,2.00
2022-08-03T15:42:47.719Z,2.83
2022-08-03T15:52:49.218Z,2.63
2022-08-03T16:02:50.765Z,2.27
2022-08-03T16:12:57.627Z,2.03
2022-08-03T16:22:59.288Z,1.87
2022-08-03T16:33:03.449Z,2.08
2022-08-03T16:43:18.134Z,2.17
2022-08-03T16:53:33.685Z,1.70
2022-08-03T17:03:43.507Z,2.20
2022-08-03T17:14:06.472Z,2.00
2022-08-03T17:24:26.815Z,2.63
2022-08-03T17:34:29.275Z,1.93
2022-08-03T17:44:38.770Z,1.70
2022-08-03T17:55:57.715Z,1.93
2022-08-03T18:05:21.938Z,2.10
2022-08-03T18:15:28.620Z,2.30
2022-08-03T18:25:42.982Z,2.27
2022-08-03T18:35:53.039Z,2.30
2022-08-03T18:45:58.010Z,2.30
2022-08-03T18:56:08.122Z,1.87
2022-08-03T19:06:22.236Z,2.75
2022-08-03T19:16:47.443Z,2.10
2022-08-03T19:26:51.311Z,2.27
2022-08-03T19:36:55.242Z,2.60
2022-08-03T19:47:29.385Z,3.17
2022-08-03T19:57:33.379Z,3.22
2022-08-03T20:07:34.901Z,2.90
2022-08-03T20:17:57.025Z,3.00
2022-08-03T20:28:14.185Z,3.03
2022-08-03T20:38:20.156Z,2.40
2022-08-03T20:48:30.016Z,2.60
2022-08-03T20:58:32.675Z,3.13
2022-08-03T21:08:38.952Z,2.30
2022-08-03T21:18:52.850Z,2.00
2022-08-03T21:28:56.510Z,2.30
2022-08-03T21:38:59.222Z,2.30
2022-08-03T21:50:07.377Z,2.23
2022-08-03T21:59:25.091Z,2.10
2022-08-03T22:09:27.014Z,2.67
2022-08-03T22:19:28.566Z,1.93
2022-08-03T22:29:33.695Z,2.20
2022-08-03T22:39:47.173Z,2.70
2022-08-03T22:49:51.070Z,2.43
2022-08-03T23:00:15.487Z,2.37
2022-08-03T23:10:17.608Z,2.00
2022-08-03T23:20:20.179Z,1.92
2022-08-03T23:30:31.208Z,2.03
2022-08-03T23:40:33.814Z,1.83
2022-08-03T23:50:44.573Z,2.43
